sensor_id;sensor_type;location;lat;lon;timestamp;temperature;humidity
59893;DHT22;45758;51.052;3.740;2022-11-15T00:01:09;11.70;99.90
59893;DHT22;45758;51.052;3.740;2022-11-15T00:03:35;11.70;99.90
59893;DHT22;45758;51.052;3.740;2022-11-15T00:06:02;11.60;99.90
59893;DHT22;45758;51.052;3.740;2022-11-15T00:08:32;11.70;99.90
59893;DHT22;45758;51.052;3.740;2022-11-15T00:11:00;11.70;99.90
59893;DHT22;45758;51.052;3.740;2022-11-15T00:13:26;11.70;99.90
59893;DHT22;45758;51.052;3.740;2022-11-15T00:15:52;11.90;99.90
59893;DHT22;45758;51.052;3.740;2022-11-15T00:18:21;11.90;99.90
59893;DHT22;45758;51.052;3.740;2022-11-15T00:20:47;11.90;99.90
59893;DHT22;45758;51.052;3.740;2022-11-15T00:23:16;11.90;99.90
59893;DHT22;45758;51.052;3.740;2022-11-15T00:25:41;11.90;99.90
59893;DHT22;45758;51.052;3.740;2022-11-15T00:28:07;11.90;99.90
59893;DHT22;45758;51.052;3.740;2022-11-15T00:30:33;11.90;99.90
59893;DHT22;45758;51.052;3.740;2022-11-15T00:33:05;11.90;99.90
59893;DHT22;45758;51.052;3.740;2022-11-15T00:35:32;11.90;99.90
59893;DHT22;45758;51.052;3.740;2022-11-15T00:38:02;11.90;99.90
59893;DHT22;45758;51.052;3.740;2022-11-15T00:40:28;12.00;99.90
59893;DHT22;45758;51.052;3.740;2022-11-15T00:42:54;12.00;99.90
59893;DHT22;45758;51.052;3.740;2022-11-15T00:45:20;12.00;99.90
59893;DHT22;45758;51.052;3.740;2022-11-15T00:47:46;12.00;99.90
59893;DHT22;45758;51.052;3.740;2022-11-15T00:50:14;12.10;99.90
59893;DHT22;45758;51.052;3.740;2022-11-15T00:52:39;12.00;99.90
59893;DHT22;45758;51.052;3.740;2022-11-15T00:55:06;12.00;99.90
59893;DHT22;45758;51.052;3.740;2022-11-15T00:57:31;11.90;99.90
59893;DHT22;45758;51.052;3.740;2022-11-15T00:59:57;12.00;99.90
59893;DHT22;45758;51.052;3.740;2022-11-15T01:02:23;11.90;99.90
59893;DHT22;45758;51.052;3.740;2022-11-15T01:04:50;11.90;99.90
59893;DHT22;45758;51.052;3.740;2022-11-15T01:07:16;12.10;99.90
59893;DHT22;45758;51.052;3.740;2022-11-15T01:09:42;12.10;99.90
59893;DHT22;45758;51.052;3.740;2022-11-15T01:12:08;12.10;99.90
59893;DHT22;45758;51.052;3.740;2022-11-15T01:14:34;12.10;99.90
59893;DHT22;45758;51.052;3.740;2022-11-15T01:17:00;12.10;99.90
59893;DHT22;45758;51.052;3.740;2022-11-15T01:19:26;12.20;99.90
59893;DHT22;45758;51.052;3.740;2022-11-15T01:21:52;12.10;99.90
59893;DHT22;45758;51.052;3.740;2022-11-15T01:24:19;12.20;99.90
59893;DHT22;45758;51.052;3.740;2022-11-15T01:26:45;12.10;99.90
59893;DHT22;45758;51.052;3.740;2022-11-15T01:29:11;12.10;99.90
59893;DHT22;45758;51.052;3.740;2022-11-15T01:31:37;12.10;99.90
59893;DHT22;45758;51.052;3.740;2022-11-15T01:34:03;12.00;99.90
59893;DHT22;45758;51.052;3.740;2022-11-15T01:36:29;12.00;99.90
59893;DHT22;45758;51.052;3.740;2022-11-15T01:38:58;12.10;99.90
59893;DHT22;45758;51.052;3.740;2022-11-15T01:41:30;12.10;99.90
59893;DHT22;45758;51.052;3.740;2022-11-15T01:44:28;12.20;99.90
59893;DHT22;45758;51.052;3.740;2022-11-15T01:46:46;12.20;99.90
59893;DHT22;45758;51.052;3.740;2022-11-15T01:49:21;12.20;99.90
59893;DHT22;45758;51.052;3.740;2022-11-15T01:51:49;12.10;99.90
59893;DHT22;45758;51.052;3.740;2022-11-15T01:54:18;12.20;99.90
59893;DHT22;45758;51.052;3.740;2022-11-15T01:57:00;12.20;99.90
59893;DHT22;45758;51.052;3.740;2022-11-15T01:59:27;12.20;99.90
59893;DHT22;45758;51.052;3.740;2022-11-15T02:01:53;12.20;99.90
59893;DHT22;45758;51.052;3.740;2022-11-15T02:04:26;12.10;99.90
59893;DHT22;45758;51.052;3.740;2022-11-15T02:06:55;12.10;99.90
59893;DHT22;45758;51.052;3.740;2022-11-15T02:09:21;12.10;99.90
59893;DHT22;45758;51.052;3.740;2022-11-15T02:11:47;12.10;99.90
59893;DHT22;45758;51.052;3.740;2022-11-15T02:14:15;12.00;99.90
59893;DHT22;45758;51.052;3.740;2022-11-15T02:22:37;12.10;99.90
59893;DHT22;45758;51.052;3.740;2022-11-15T02:28:21;12.10;99.90
59893;DHT22;45758;51.052;3.740;2022-11-15T02:44:39;12.00;99.90
59893;DHT22;45758;51.052;3.740;2022-11-15T02:47:11;12.00;99.90
59893;DHT22;45758;51.052;3.740;2022-11-15T02:49:41;11.90;99.90
59893;DHT22;45758;51.052;3.740;2022-11-15T02:52:07;12.00;99.90
59893;DHT22;45758;51.052;3.740;2022-11-15T02:54:34;12.00;99.90
59893;DHT22;45758;51.052;3.740;2022-11-15T02:57:06;12.00;99.90
59893;DHT22;45758;51.052;3.740;2022-11-15T03:00:09;11.90;99.90
59893;DHT22;45758;51.052;3.740;2022-11-15T03:02:42;11.90;99.90
59893;DHT22;45758;51.052;3.740;2022-11-15T03:10:24;11.90;99.90
59893;DHT22;45758;51.052;3.740;2022-11-15T03:13:16;11.90;99.90
59893;DHT22;45758;51.052;3.740;2022-11-15T03:15:57;11.90;99.90
59893;DHT22;45758;51.052;3.740;2022-11-15T03:18:33;11.90;99.90
59893;DHT22;45758;51.052;3.740;2022-11-15T03:21:08;11.90;99.90
59893;DHT22;45758;51.052;3.740;2022-11-15T03:23:43;11.90;99.90
59893;DHT22;45758;51.052;3.740;2022-11-15T03:26:13;12.00;99.90
59893;DHT22;45758;51.052;3.740;2022-11-15T03:31:18;12.00;99.90
59893;DHT22;45758;51.052;3.740;2022-11-15T03:34:05;11.90;99.90
59893;DHT22;45758;51.052;3.740;2022-11-15T03:36:33;11.80;99.90
59893;DHT22;45758;51.052;3.740;2022-11-15T03:39:03;11.70;99.90
59893;DHT22;45758;51.052;3.740;2022-11-15T03:47:23;11.50;99.90
59893;DHT22;45758;51.052;3.740;2022-11-15T03:49:53;11.50;99.90
59893;DHT22;45758;51.052;3.740;2022-11-15T03:52:21;11.40;99.90
59893;DHT22;45758;51.052;3.740;2022-11-15T03:54:50;11.40;99.90
59893;DHT22;45758;51.052;3.740;2022-11-15T03:57:16;11.50;99.90
59893;DHT22;45758;51.052;3.740;2022-11-15T03:59:42;11.50;99.90
59893;DHT22;45758;51.052;3.740;2022-11-15T04:02:08;11.50;99.90
59893;DHT22;45758;51.052;3.740;2022-11-15T04:04:34;11.40;99.90
59893;DHT22;45758;51.052;3.740;2022-11-15T04:07:00;11.50;99.90
59893;DHT22;45758;51.052;3.740;2022-11-15T04:09:26;11.50;99.90
59893;DHT22;45758;51.052;3.740;2022-11-15T04:11:52;11.50;99.90
59893;DHT22;45758;51.052;3.740;2022-11-15T04:14:17;11.40;99.90
59893;DHT22;45758;51.052;3.740;2022-11-15T04:16:43;11.50;99.90
59893;DHT22;45758;51.052;3.740;2022-11-15T04:19:09;11.30;99.90
59893;DHT22;45758;51.052;3.740;2022-11-15T04:21:53;11.30;99.90
59893;DHT22;45758;51.052;3.740;2022-11-15T04:24:38;11.20;99.90
59893;DHT22;45758;51.052;3.740;2022-11-15T04:27:04;11.10;99.90
59893;DHT22;45758;51.052;3.740;2022-11-15T04:29:29;11.10;99.90
59893;DHT22;45758;51.052;3.740;2022-11-15T04:32:03;11.00;99.90
59893;DHT22;45758;51.052;3.740;2022-11-15T04:34:32;11.00;99.90
59893;DHT22;45758;51.052;3.740;2022-11-15T04:36:58;10.90;99.90
59893;DHT22;45758;51.052;3.740;2022-11-15T04:39:40;10.90;99.90
59893;DHT22;45758;51.052;3.740;2022-11-15T04:42:07;10.80;99.90
59893;DHT22;45758;51.052;3.740;2022-11-15T04:44:33;10.70;99.90
59893;DHT22;45758;51.052;3.740;2022-11-15T04:47:03;10.70;99.90
59893;DHT22;45758;51.052;3.740;2022-11-15T04:49:31;10.60;99.90
59893;DHT22;45758;51.052;3.740;2022-11-15T04:51:57;10.70;99.90
59893;DHT22;45758;51.052;3.740;2022-11-15T04:54:23;10.70;99.90
59893;DHT22;45758;51.052;3.740;2022-11-15T04:56:49;10.60;99.90
59893;DHT22;45758;51.052;3.740;2022-11-15T04:59:15;10.50;99.90
59893;DHT22;45758;51.052;3.740;2022-11-15T05:01:41;10.60;99.90
59893;DHT22;45758;51.052;3.740;2022-11-15T05:04:07;10.60;99.90
59893;DHT22;45758;51.052;3.740;2022-11-15T05:06:46;10.50;99.90
59893;DHT22;45758;51.052;3.740;2022-11-15T05:09:13;10.40;99.90
59893;DHT22;45758;51.052;3.740;2022-11-15T05:11:39;10.50;99.90
59893;DHT22;45758;51.052;3.740;2022-11-15T05:14:05;10.40;99.90
59893;DHT22;45758;51.052;3.740;2022-11-15T05:16:31;10.40;99.90
59893;DHT22;45758;51.052;3.740;2022-11-15T05:18:57;10.40;99.90
59893;DHT22;45758;51.052;3.740;2022-11-15T05:21:23;10.40;99.90
59893;DHT22;45758;51.052;3.740;2022-11-15T05:23:49;10.40;99.90
59893;DHT22;45758;51.052;3.740;2022-11-15T05:26:16;10.30;99.90
59893;DHT22;45758;51.052;3.740;2022-11-15T05:28:43;10.30;99.90
59893;DHT22;45758;51.052;3.740;2022-11-15T05:31:13;10.30;99.90
59893;DHT22;45758;51.052;3.740;2022-11-15T05:33:40;10.30;99.90
59893;DHT22;45758;51.052;3.740;2022-11-15T05:38:53;10.20;99.90
59893;DHT22;45758;51.052;3.740;2022-11-15T05:41:22;10.20;99.90
59893;DHT22;45758;51.052;3.740;2022-11-15T05:43:50;10.10;99.90
59893;DHT22;45758;51.052;3.740;2022-11-15T05:46:19;10.00;99.90
59893;DHT22;45758;51.052;3.740;2022-11-15T05:48:47;10.10;99.90
59893;DHT22;45758;51.052;3.740;2022-11-15T05:51:14;10.00;99.90
59893;DHT22;45758;51.052;3.740;2022-11-15T05:53:43;10.10;99.90
59893;DHT22;45758;51.052;3.740;2022-11-15T05:56:10;10.10;99.90
59893;DHT22;45758;51.052;3.740;2022-11-15T05:58:37;10.10;99.90
59893;DHT22;45758;51.052;3.740;2022-11-15T06:01:03;10.00;99.90
59893;DHT22;45758;51.052;3.740;2022-11-15T06:03:32;10.00;99.90
59893;DHT22;45758;51.052;3.740;2022-11-15T06:05:58;9.90;99.90
59893;DHT22;45758;51.052;3.740;2022-11-15T06:08:24;9.80;99.90
59893;DHT22;45758;51.052;3.740;2022-11-15T06:10:50;9.80;99.90
59893;DHT22;45758;51.052;3.740;2022-11-15T06:13:16;9.80;99.90
59893;DHT22;45758;51.052;3.740;2022-11-15T06:15:42;9.70;99.90
59893;DHT22;45758;51.052;3.740;2022-11-15T06:18:07;9.60;99.90
59893;DHT22;45758;51.052;3.740;2022-11-15T06:20:33;9.60;99.90
59893;DHT22;45758;51.052;3.740;2022-11-15T06:23:01;9.60;99.90
59893;DHT22;45758;51.052;3.740;2022-11-15T06:25:27;9.60;99.90
59893;DHT22;45758;51.052;3.740;2022-11-15T06:27:58;9.80;99.90
59893;DHT22;45758;51.052;3.740;2022-11-15T06:30:25;9.70;99.90
59893;DHT22;45758;51.052;3.740;2022-11-15T06:32:57;9.60;99.90
59893;DHT22;45758;51.052;3.740;2022-11-15T06:35:24;9.60;99.90
59893;DHT22;45758;51.052;3.740;2022-11-15T06:37:59;9.60;99.90
59893;DHT22;45758;51.052;3.740;2022-11-15T06:40:27;9.70;99.90
59893;DHT22;45758;51.052;3.740;2022-11-15T06:42:58;9.60;99.90
59893;DHT22;45758;51.052;3.740;2022-11-15T06:45:24;9.60;99.90
59893;DHT22;45758;51.052;3.740;2022-11-15T06:47:50;9.60;99.90
59893;DHT22;45758;51.052;3.740;2022-11-15T06:50:16;9.50;99.90
59893;DHT22;45758;51.052;3.740;2022-11-15T06:52:42;9.50;99.90
59893;DHT22;45758;51.052;3.740;2022-11-15T06:55:08;9.50;99.90
59893;DHT22;45758;51.052;3.740;2022-11-15T06:57:35;9.60;99.90
59893;DHT22;45758;51.052;3.740;2022-11-15T07:00:03;9.60;99.90
59893;DHT22;45758;51.052;3.740;2022-11-15T07:02:32;9.60;99.90
59893;DHT22;45758;51.052;3.740;2022-11-15T07:04:58;9.50;99.90
59893;DHT22;45758;51.052;3.740;2022-11-15T07:07:24;9.60;99.90
59893;DHT22;45758;51.052;3.740;2022-11-15T07:09:51;9.60;99.90
59893;DHT22;45758;51.052;3.740;2022-11-15T07:12:26;9.50;99.90
59893;DHT22;45758;51.052;3.740;2022-11-15T07:14:55;9.60;99.90
59893;DHT22;45758;51.052;3.740;2022-11-15T07:17:21;9.70;99.90
59893;DHT22;45758;51.052;3.740;2022-11-15T07:19:47;9.80;99.90
59893;DHT22;45758;51.052;3.740;2022-11-15T07:22:13;9.70;99.90
59893;DHT22;45758;51.052;3.740;2022-11-15T07:24:39;9.70;99.90
59893;DHT22;45758;51.052;3.740;2022-11-15T07:27:05;9.80;99.90
59893;DHT22;45758;51.052;3.740;2022-11-15T07:29:41;9.80;99.90
59893;DHT22;45758;51.052;3.740;2022-11-15T07:32:07;9.80;99.90
59893;DHT22;45758;51.052;3.740;2022-11-15T07:34:33;9.80;99.90
59893;DHT22;45758;51.052;3.740;2022-11-15T07:36:58;9.80;99.90
59893;DHT22;45758;51.052;3.740;2022-11-15T07:39:24;9.90;99.90
59893;DHT22;45758;51.052;3.740;2022-11-15T07:41:50;9.90;99.90
59893;DHT22;45758;51.052;3.740;2022-11-15T07:44:36;9.90;99.90
59893;DHT22;45758;51.052;3.740;2022-11-15T07:47:02;10.00;99.90
59893;DHT22;45758;51.052;3.740;2022-11-15T07:49:28;10.10;99.90
59893;DHT22;45758;51.052;3.740;2022-11-15T07:51:56;10.20;99.90
59893;DHT22;45758;51.052;3.740;2022-11-15T07:54:24;10.20;99.90
59893;DHT22;45758;51.052;3.740;2022-11-15T07:56:50;10.20;99.90
59893;DHT22;45758;51.052;3.740;2022-11-15T07:59:16;10.30;99.90
59893;DHT22;45758;51.052;3.740;2022-11-15T08:01:42;10.30;99.90
59893;DHT22;45758;51.052;3.740;2022-11-15T08:04:10;10.30;99.90
59893;DHT22;45758;51.052;3.740;2022-11-15T08:06:36;10.40;99.90
59893;DHT22;45758;51.052;3.740;2022-11-15T08:09:02;10.30;99.90
59893;DHT22;45758;51.052;3.740;2022-11-15T08:11:28;10.40;99.90
59893;DHT22;45758;51.052;3.740;2022-11-15T08:13:54;10.40;99.90
59893;DHT22;45758;51.052;3.740;2022-11-15T08:16:20;10.40;99.90
59893;DHT22;45758;51.052;3.740;2022-11-15T08:18:46;10.40;99.90
59893;DHT22;45758;51.052;3.740;2022-11-15T08:21:18;10.50;99.90
59893;DHT22;45758;51.052;3.740;2022-11-15T08:23:44;10.40;99.90
59893;DHT22;45758;51.052;3.740;2022-11-15T08:26:10;10.50;99.90
59893;DHT22;45758;51.052;3.740;2022-11-15T08:28:36;10.40;99.90
59893;DHT22;45758;51.052;3.740;2022-11-15T08:31:03;10.50;99.90
59893;DHT22;45758;51.052;3.740;2022-11-15T08:33:30;10.60;99.90
59893;DHT22;45758;51.052;3.740;2022-11-15T08:36:00;10.60;99.90
59893;DHT22;45758;51.052;3.740;2022-11-15T08:38:26;10.70;99.90
59893;DHT22;45758;51.052;3.740;2022-11-15T08:41:01;10.80;99.90
59893;DHT22;45758;51.052;3.740;2022-11-15T08:43:28;10.90;99.90
59893;DHT22;45758;51.052;3.740;2022-11-15T08:45:56;10.90;99.90
59893;DHT22;45758;51.052;3.740;2022-11-15T08:48:22;11.00;99.90
59893;DHT22;45758;51.052;3.740;2022-11-15T08:50:48;11.00;99.90
59893;DHT22;45758;51.052;3.740;2022-11-15T08:53:14;11.20;99.90
59893;DHT22;45758;51.052;3.740;2022-11-15T08:55:41;11.40;99.90
59893;DHT22;45758;51.052;3.740;2022-11-15T08:58:07;11.60;99.90
59893;DHT22;45758;51.052;3.740;2022-11-15T09:00:33;11.70;99.90
59893;DHT22;45758;51.052;3.740;2022-11-15T09:02:59;11.90;99.90
59893;DHT22;45758;51.052;3.740;2022-11-15T09:05:26;12.00;99.90
59893;DHT22;45758;51.052;3.740;2022-11-15T09:07:54;12.10;99.90
59893;DHT22;45758;51.052;3.740;2022-11-15T09:10:21;12.20;99.90
59893;DHT22;45758;51.052;3.740;2022-11-15T09:12:47;12.30;99.90
59893;DHT22;45758;51.052;3.740;2022-11-15T09:15:16;12.40;99.90
59893;DHT22;45758;51.052;3.740;2022-11-15T09:17:42;12.50;99.90
59893;DHT22;45758;51.052;3.740;2022-11-15T09:20:09;12.60;99.90
59893;DHT22;45758;51.052;3.740;2022-11-15T09:22:35;12.60;99.90
59893;DHT22;45758;51.052;3.740;2022-11-15T09:25:02;12.70;99.90
59893;DHT22;45758;51.052;3.740;2022-11-15T09:27:29;12.70;99.90
59893;DHT22;45758;51.052;3.740;2022-11-15T09:29:55;12.90;99.90
59893;DHT22;45758;51.052;3.740;2022-11-15T09:32:21;12.90;99.90
59893;DHT22;45758;51.052;3.740;2022-11-15T09:34:49;13.00;99.90
59893;DHT22;45758;51.052;3.740;2022-11-15T09:37:15;13.00;99.90
59893;DHT22;45758;51.052;3.740;2022-11-15T09:39:41;13.10;99.90
59893;DHT22;45758;51.052;3.740;2022-11-15T09:44:56;13.20;99.90
59893;DHT22;45758;51.052;3.740;2022-11-15T09:53:03;13.20;99.90
59893;DHT22;45758;51.052;3.740;2022-11-15T09:55:49;13.20;99.90
59893;DHT22;45758;51.052;3.740;2022-11-15T10:01:25;13.20;99.90
59893;DHT22;45758;51.052;3.740;2022-11-15T10:03:56;13.30;99.90
59893;DHT22;45758;51.052;3.740;2022-11-15T10:06:25;13.30;99.90
59893;DHT22;45758;51.052;3.740;2022-11-15T10:09:00;13.30;99.90
59893;DHT22;45758;51.052;3.740;2022-11-15T10:11:38;13.30;99.90
59893;DHT22;45758;51.052;3.740;2022-11-15T10:14:17;13.50;99.90
59893;DHT22;45758;51.052;3.740;2022-11-15T10:17:06;13.50;99.90
59893;DHT22;45758;51.052;3.740;2022-11-15T10:20:19;13.70;99.90
59893;DHT22;45758;51.052;3.740;2022-11-15T10:23:06;13.60;99.90
59893;DHT22;45758;51.052;3.740;2022-11-15T10:25:36;13.50;99.90
59893;DHT22;45758;51.052;3.740;2022-11-15T10:28:29;13.60;99.90
59893;DHT22;45758;51.052;3.740;2022-11-15T10:31:02;13.70;99.90
59893;DHT22;45758;51.052;3.740;2022-11-15T10:33:36;13.70;99.90
59893;DHT22;45758;51.052;3.740;2022-11-15T10:41:18;13.80;99.90
59893;DHT22;45758;51.052;3.740;2022-11-15T10:43:44;13.80;99.90
59893;DHT22;45758;51.052;3.740;2022-11-15T10:46:31;14.00;99.90
59893;DHT22;45758;51.052;3.740;2022-11-15T10:49:15;14.20;99.90
59893;DHT22;45758;51.052;3.740;2022-11-15T10:54:12;14.40;99.90
59893;DHT22;45758;51.052;3.740;2022-11-15T10:56:40;14.40;99.90
59893;DHT22;45758;51.052;3.740;2022-11-15T10:59:18;14.40;99.90
59893;DHT22;45758;51.052;3.740;2022-11-15T11:01:47;14.40;99.90
59893;DHT22;45758;51.052;3.740;2022-11-15T11:04:14;14.50;99.90
59893;DHT22;45758;51.052;3.740;2022-11-15T11:06:54;14.50;99.90
59893;DHT22;45758;51.052;3.740;2022-11-15T11:09:31;14.50;99.90
59893;DHT22;45758;51.052;3.740;2022-11-15T11:11:58;14.50;99.90
59893;DHT22;45758;51.052;3.740;2022-11-15T11:14:34;14.60;99.90
59893;DHT22;45758;51.052;3.740;2022-11-15T11:19:58;14.50;99.90
59893;DHT22;45758;51.052;3.740;2022-11-15T11:47:58;15.20;99.90
59893;DHT22;45758;51.052;3.740;2022-11-15T11:50:27;15.20;99.90
59893;DHT22;45758;51.052;3.740;2022-11-15T11:53:10;15.20;99.90
59893;DHT22;45758;51.052;3.740;2022-11-15T11:55:56;15.20;99.90
59893;DHT22;45758;51.052;3.740;2022-11-15T11:58:45;15.10;99.90
59893;DHT22;45758;51.052;3.740;2022-11-15T12:03:53;15.00;99.90
59893;DHT22;45758;51.052;3.740;2022-11-15T12:06:29;15.00;99.90
59893;DHT22;45758;51.052;3.740;2022-11-15T12:09:32;15.00;99.90
59893;DHT22;45758;51.052;3.740;2022-11-15T12:12:09;15.00;99.90
59893;DHT22;45758;51.052;3.740;2022-11-15T12:17:11;15.20;99.90
59893;DHT22;45758;51.052;3.740;2022-11-15T12:19:37;15.20;99.90
59893;DHT22;45758;51.052;3.740;2022-11-15T12:24:50;15.10;99.90
59893;DHT22;45758;51.052;3.740;2022-11-15T12:27:34;15.00;99.90
59893;DHT22;45758;51.052;3.740;2022-11-15T12:30:13;15.00;99.90
59893;DHT22;45758;51.052;3.740;2022-11-15T12:32:52;14.90;99.90
59893;DHT22;45758;51.052;3.740;2022-11-15T12:35:26;15.00;99.90
59893;DHT22;45758;51.052;3.740;2022-11-15T12:37:55;15.00;99.90
59893;DHT22;45758;51.052;3.740;2022-11-15T12:43:44;15.10;99.90
59893;DHT22;45758;51.052;3.740;2022-11-15T12:49:07;15.20;99.90
59893;DHT22;45758;51.052;3.740;2022-11-15T12:54:50;15.30;99.90
59893;DHT22;45758;51.052;3.740;2022-11-15T12:59:55;15.20;99.90
59893;DHT22;45758;51.052;3.740;2022-11-15T13:02:35;15.20;99.90
59893;DHT22;45758;51.052;3.740;2022-11-15T13:17:49;14.90;99.90
59893;DHT22;45758;51.052;3.740;2022-11-15T13:23:12;14.90;99.90
59893;DHT22;45758;51.052;3.740;2022-11-15T13:26:14;15.00;99.90
59893;DHT22;45758;51.052;3.740;2022-11-15T13:28:48;15.00;99.90
59893;DHT22;45758;51.052;3.740;2022-11-15T13:31:40;14.90;99.90
59893;DHT22;45758;51.052;3.740;2022-11-15T13:34:29;14.90;99.90
59893;DHT22;45758;51.052;3.740;2022-11-15T13:36:58;14.90;99.90
59893;DHT22;45758;51.052;3.740;2022-11-15T13:39:31;14.70;99.90
59893;DHT22;45758;51.052;3.740;2022-11-15T13:42:03;14.60;99.90
59893;DHT22;45758;51.052;3.740;2022-11-15T13:44:31;14.70;99.90
59893;DHT22;45758;51.052;3.740;2022-11-15T13:47:14;14.60;99.90
59893;DHT22;45758;51.052;3.740;2022-11-15T13:49:41;14.70;99.90
59893;DHT22;45758;51.052;3.740;2022-11-15T13:52:14;14.70;99.90
59893;DHT22;45758;51.052;3.740;2022-11-15T13:57:55;14.70;99.90
59893;DHT22;45758;51.052;3.740;2022-11-15T14:00:04;14.70;99.90
59893;DHT22;45758;51.052;3.740;2022-11-15T14:02:32;14.60;99.90
59893;DHT22;45758;51.052;3.740;2022-11-15T14:05:16;14.60;99.90
59893;DHT22;45758;51.052;3.740;2022-11-15T14:07:53;14.50;99.90
59893;DHT22;45758;51.052;3.740;2022-11-15T14:10:29;14.40;99.90
59893;DHT22;45758;51.052;3.740;2022-11-15T14:12:57;14.40;99.90
59893;DHT22;45758;51.052;3.740;2022-11-15T14:15:38;14.40;99.90
59893;DHT22;45758;51.052;3.740;2022-11-15T14:18:05;14.40;99.90
59893;DHT22;45758;51.052;3.740;2022-11-15T14:20:35;14.30;99.90
59893;DHT22;45758;51.052;3.740;2022-11-15T14:23:03;14.20;99.90
59893;DHT22;45758;51.052;3.740;2022-11-15T14:25:31;14.20;99.90
59893;DHT22;45758;51.052;3.740;2022-11-15T14:28:27;14.20;99.90
59893;DHT22;45758;51.052;3.740;2022-11-15T14:30:57;14.20;99.90
59893;DHT22;45758;51.052;3.740;2022-11-15T14:33:35;14.00;99.90
59893;DHT22;45758;51.052;3.740;2022-11-15T14:36:15;13.90;99.90
59893;DHT22;45758;51.052;3.740;2022-11-15T14:38:42;13.80;99.90
59893;DHT22;45758;51.052;3.740;2022-11-15T14:41:24;13.70;99.90
59893;DHT22;45758;51.052;3.740;2022-11-15T14:43:52;13.70;99.90
59893;DHT22;45758;51.052;3.740;2022-11-15T14:46:19;13.60;99.90
59893;DHT22;45758;51.052;3.740;2022-11-15T14:48:45;13.60;99.90
59893;DHT22;45758;51.052;3.740;2022-11-15T14:51:16;13.50;99.90
59893;DHT22;45758;51.052;3.740;2022-11-15T14:53:44;13.40;99.90
59893;DHT22;45758;51.052;3.740;2022-11-15T14:56:13;13.40;99.90
59893;DHT22;45758;51.052;3.740;2022-11-15T14:58:39;13.30;99.90
59893;DHT22;45758;51.052;3.740;2022-11-15T15:01:13;13.20;99.90
59893;DHT22;45758;51.052;3.740;2022-11-15T15:03:41;13.10;99.90
59893;DHT22;45758;51.052;3.740;2022-11-15T15:06:09;13.10;99.90
59893;DHT22;45758;51.052;3.740;2022-11-15T15:08:35;13.10;99.90
59893;DHT22;45758;51.052;3.740;2022-11-15T15:11:01;13.10;99.90
59893;DHT22;45758;51.052;3.740;2022-11-15T15:13:27;13.00;99.90
59893;DHT22;45758;51.052;3.740;2022-11-15T15:15:55;13.00;99.90
59893;DHT22;45758;51.052;3.740;2022-11-15T15:18:21;13.00;99.90
59893;DHT22;45758;51.052;3.740;2022-11-15T15:20:56;12.90;99.90
59893;DHT22;45758;51.052;3.740;2022-11-15T15:23:25;12.90;99.90
59893;DHT22;45758;51.052;3.740;2022-11-15T15:25:55;12.80;99.90
59893;DHT22;45758;51.052;3.740;2022-11-15T15:28:21;12.80;99.90
59893;DHT22;45758;51.052;3.740;2022-11-15T15:30:50;12.90;99.90
59893;DHT22;45758;51.052;3.740;2022-11-15T15:33:16;12.90;99.90
59893;DHT22;45758;51.052;3.740;2022-11-15T15:35:42;12.90;99.90
59893;DHT22;45758;51.052;3.740;2022-11-15T15:38:14;12.90;99.90
59893;DHT22;45758;51.052;3.740;2022-11-15T15:40:41;12.80;99.90
59893;DHT22;45758;51.052;3.740;2022-11-15T15:43:07;12.80;99.90
59893;DHT22;45758;51.052;3.740;2022-11-15T15:45:37;12.80;99.90
59893;DHT22;45758;51.052;3.740;2022-11-15T15:48:03;12.80;99.90
59893;DHT22;45758;51.052;3.740;2022-11-15T15:50:33;12.80;99.90
59893;DHT22;45758;51.052;3.740;2022-11-15T15:53:01;12.80;99.90
59893;DHT22;45758;51.052;3.740;2022-11-15T15:55:28;12.80;99.90
59893;DHT22;45758;51.052;3.740;2022-11-15T15:57:54;12.70;99.90
59893;DHT22;45758;51.052;3.740;2022-11-15T16:00:21;12.70;99.90
59893;DHT22;45758;51.052;3.740;2022-11-15T16:02:49;12.70;99.90
59893;DHT22;45758;51.052;3.740;2022-11-15T16:05:15;12.80;99.90
59893;DHT22;45758;51.052;3.740;2022-11-15T16:07:41;12.70;99.90
59893;DHT22;45758;51.052;3.740;2022-11-15T16:10:38;12.70;99.90
59893;DHT22;45758;51.052;3.740;2022-11-15T16:13:06;12.70;99.90
59893;DHT22;45758;51.052;3.740;2022-11-15T16:15:36;12.60;99.90
59893;DHT22;45758;51.052;3.740;2022-11-15T16:18:03;12.70;99.90
59893;DHT22;45758;51.052;3.740;2022-11-15T16:20:49;12.70;99.90
59893;DHT22;45758;51.052;3.740;2022-11-15T16:23:18;12.80;99.90
59893;DHT22;45758;51.052;3.740;2022-11-15T16:25:54;12.80;99.90
59893;DHT22;45758;51.052;3.740;2022-11-15T16:28:28;12.80;99.90
59893;DHT22;45758;51.052;3.740;2022-11-15T16:31:07;12.80;99.90
59893;DHT22;45758;51.052;3.740;2022-11-15T16:33:34;12.70;99.90
59893;DHT22;45758;51.052;3.740;2022-11-15T16:36:00;12.80;99.90
59893;DHT22;45758;51.052;3.740;2022-11-15T16:38:26;12.80;99.90
59893;DHT22;45758;51.052;3.740;2022-11-15T16:40:52;12.70;99.90
59893;DHT22;45758;51.052;3.740;2022-11-15T16:43:18;12.70;99.90
59893;DHT22;45758;51.052;3.740;2022-11-15T16:45:44;12.70;99.90
59893;DHT22;45758;51.052;3.740;2022-11-15T16:48:29;12.80;99.90
59893;DHT22;45758;51.052;3.740;2022-11-15T16:50:56;12.70;99.90
59893;DHT22;45758;51.052;3.740;2022-11-15T16:53:23;12.70;99.90
59893;DHT22;45758;51.052;3.740;2022-11-15T16:55:49;12.80;99.90
59893;DHT22;45758;51.052;3.740;2022-11-15T16:58:15;12.80;99.90
59893;DHT22;45758;51.052;3.740;2022-11-15T17:00:41;12.90;99.90
59893;DHT22;45758;51.052;3.740;2022-11-15T17:03:07;12.90;99.90
59893;DHT22;45758;51.052;3.740;2022-11-15T17:05:33;13.00;99.90
59893;DHT22;45758;51.052;3.740;2022-11-15T17:08:00;13.00;99.90
59893;DHT22;45758;51.052;3.740;2022-11-15T17:10:27;13.00;99.90
59893;DHT22;45758;51.052;3.740;2022-11-15T17:12:54;13.00;99.90
59893;DHT22;45758;51.052;3.740;2022-11-15T17:15:20;12.90;99.90
59893;DHT22;45758;51.052;3.740;2022-11-15T17:17:58;13.00;99.90
59893;DHT22;45758;51.052;3.740;2022-11-15T17:20:25;12.90;99.90
59893;DHT22;45758;51.052;3.740;2022-11-15T17:22:51;13.00;99.90
59893;DHT22;45758;51.052;3.740;2022-11-15T17:25:17;13.00;99.90
59893;DHT22;45758;51.052;3.740;2022-11-15T17:27:43;13.00;99.90
59893;DHT22;45758;51.052;3.740;2022-11-15T17:30:11;13.00;99.90
59893;DHT22;45758;51.052;3.740;2022-11-15T17:32:40;13.00;99.90
59893;DHT22;45758;51.052;3.740;2022-11-15T17:35:07;13.00;99.90
59893;DHT22;45758;51.052;3.740;2022-11-15T17:37:33;13.00;99.90
59893;DHT22;45758;51.052;3.740;2022-11-15T17:40:00;13.10;99.90
59893;DHT22;45758;51.052;3.740;2022-11-15T17:42:26;13.10;99.90
59893;DHT22;45758;51.052;3.740;2022-11-15T17:44:52;13.00;99.90
59893;DHT22;45758;51.052;3.740;2022-11-15T17:47:18;13.00;99.90
59893;DHT22;45758;51.052;3.740;2022-11-15T17:49:44;13.00;99.90
59893;DHT22;45758;51.052;3.740;2022-11-15T17:52:09;12.90;99.90
59893;DHT22;45758;51.052;3.740;2022-11-15T17:54:36;13.00;99.90